Time;durP1;ratioP1;P1;durP2;ratioP2;P2;SDS_P1;SDS_P2;PMS_P1;PMS_P2;Temp;Humidity;BMP_temperature;BMP_pressure;BME280_temperature;BME280_humidity;BME280_pressure;Samples;Min_cycle;Max_cycle;Signal;HPM_P1;HPM_P2
2023/01/20 00:01:21;;;;;;;17.80;11.50;;;1.10;28.50;;;;;;6060787;23;20443;-62
2023/01/20 00:03:47;;;;;;;19.87;12.50;;;1.10;28.40;;;;;;6061597;23;20427;-62
2023/01/20 00:06:14;;;;;;;21.50;11.77;;;1.10;28.50;;;;;;6062886;23;20422;-62
2023/01/20 00:08:42;;;;;;;18.37;11.40;;;1.10;28.50;;;;;;6063122;23;20434;-62
2023/01/20 00:11:10;;;;;;;18.00;12.47;;;1.20;28.30;;;;;;6062973;23;20443;-61
2023/01/20 00:13:38;;;;;;;20.37;12.60;;;1.20;28.50;;;;;;6062377;23;21042;-62
2023/01/20 00:16:07;;;;;;;19.93;12.17;;;1.20;28.40;;;;;;6062643;23;20450;-62
2023/01/20 00:18:34;;;;;;;18.77;12.07;;;1.20;28.40;;;;;;6062081;23;20976;-62
2023/01/20 00:21:03;;;;;;;19.87;12.57;;;1.20;28.30;;;;;;6061758;23;20450;-62
2023/01/20 00:23:30;;;;;;;21.13;12.47;;;1.20;28.20;;;;;;6062689;23;20426;-61
2023/01/20 00:25:58;;;;;;;17.27;12.07;;;1.20;28.30;;;;;;6062104;23;20415;-63
2023/01/20 00:28:25;;;;;;;20.53;12.40;;;1.20;28.30;;;;;;6062351;23;20425;-62
2023/01/20 00:30:51;;;;;;;17.13;11.10;;;1.20;28.60;;;;;;6061283;23;20443;-62
2023/01/20 00:33:18;;;;;;;19.37;11.30;;;1.20;28.70;;;;;;6062799;23;20736;-62
2023/01/20 00:35:45;;;;;;;17.53;11.67;;;1.20;28.80;;;;;;6062039;23;20749;-61
2023/01/20 00:38:11;;;;;;;18.07;11.20;;;1.10;29.00;;;;;;6062808;23;20418;-61
2023/01/20 00:40:38;;;;;;;18.17;11.93;;;1.10;29.30;;;;;;6062127;23;20439;-62
2023/01/20 00:43:06;;;;;;;17.07;10.77;;;1.10;29.30;;;;;;6062323;23;21316;-61
2023/01/20 00:45:33;;;;;;;18.57;11.00;;;1.10;29.20;;;;;;6062365;23;20427;-62
2023/01/20 00:48:00;;;;;;;20.40;12.77;;;1.10;29.30;;;;;;6063280;23;20420;-62
2023/01/20 00:50:26;;;;;;;19.53;13.47;;;1.10;29.30;;;;;;6059948;23;20773;-62
2023/01/20 00:52:53;;;;;;;22.10;14.03;;;1.10;29.40;;;;;;6062978;23;20427;-62
2023/01/20 00:55:20;;;;;;;20.83;13.30;;;1.10;29.40;;;;;;6059270;23;20419;-62
2023/01/20 00:57:46;;;;;;;23.63;14.67;;;1.10;29.40;;;;;;6062689;23;20884;-62
2023/01/20 01:00:17;;;;;;;21.07;12.93;;;1.10;29.30;;;;;;6062453;23;20454;-62
2023/01/20 01:02:44;;;;;;;20.07;13.00;;;1.10;29.30;;;;;;6065073;23;20885;-62
2023/01/20 01:05:10;;;;;;;23.07;13.40;;;1.10;29.30;;;;;;6066550;23;20422;-62
2023/01/20 01:07:37;;;;;;;21.73;14.40;;;1.10;29.40;;;;;;6064562;23;20415;-62
2023/01/20 01:10:04;;;;;;;20.00;13.90;;;1.20;29.30;;;;;;6065859;23;20435;-62
2023/01/20 01:12:31;;;;;;;21.93;14.23;;;1.10;29.50;;;;;;6065335;23;20419;-62
2023/01/20 01:14:58;;;;;;;20.77;15.73;;;1.10;29.60;;;;;;6065329;23;20421;-62
2023/01/20 01:17:26;;;;;;;25.83;15.30;;;1.10;29.50;;;;;;6065703;23;20999;-62
2023/01/20 01:19:53;;;;;;;22.43;14.13;;;1.10;29.40;;;;;;6064545;23;20439;-62
2023/01/20 01:22:20;;;;;;;23.00;16.03;;;1.10;29.50;;;;;;6065536;23;20419;-62
2023/01/20 01:24:47;;;;;;;23.43;16.00;;;1.10;29.50;;;;;;6064858;23;20787;-62
2023/01/20 01:27:14;;;;;;;21.57;13.83;;;1.10;29.50;;;;;;6065361;23;20422;-62
2023/01/20 01:29:40;;;;;;;20.70;14.73;;;1.10;29.60;;;;;;6064971;23;20426;-62
2023/01/20 01:32:07;;;;;;;22.87;14.60;;;1.10;29.60;;;;;;6064771;23;20449;-62
2023/01/20 01:34:36;;;;;;;23.50;14.60;;;1.10;29.60;;;;;;6065298;23;20918;-62
2023/01/20 01:37:02;;;;;;;23.77;14.70;;;1.10;29.70;;;;;;6065612;23;20439;-62
2023/01/20 01:39:29;;;;;;;19.83;13.37;;;1.10;29.80;;;;;;6065295;23;20450;-62
2023/01/20 01:41:56;;;;;;;25.50;16.20;;;1.10;29.80;;;;;;6064802;23;20433;-62
2023/01/20 01:44:25;;;;;;;22.70;13.73;;;1.10;29.80;;;;;;6065918;23;20423;-62
2023/01/20 01:46:52;;;;;;;24.63;15.27;;;1.10;29.80;;;;;;6065829;23;20422;-62
2023/01/20 01:49:22;;;;;;;20.30;14.10;;;1.10;29.90;;;;;;6065345;23;20426;-62
2023/01/20 01:51:55;;;;;;;21.73;13.83;;;1.00;29.90;;;;;;6064678;23;20439;-62
2023/01/20 01:54:24;;;;;;;19.87;13.37;;;1.10;30.10;;;;;;6064174;23;20407;-63
2023/01/20 01:56:52;;;;;;;20.57;13.50;;;1.10;30.00;;;;;;6065288;23;21153;-61
2023/01/20 01:59:19;;;;;;;20.87;13.40;;;1.10;30.10;;;;;;6065653;23;20453;-62
2023/01/20 02:01:50;;;;;;;21.60;14.07;;;1.00;30.20;;;;;;6064726;23;20442;-61
2023/01/20 02:04:19;;;;;;;24.40;14.43;;;1.00;30.30;;;;;;6064404;23;20410;-61
2023/01/20 02:06:51;;;;;;;22.10;13.83;;;1.00;30.20;;;;;;6065223;23;20416;-62
2023/01/20 02:09:18;;;;;;;23.93;14.70;;;1.00;30.20;;;;;;6065277;23;20403;-63
2023/01/20 02:11:48;;;;;;;22.63;14.50;;;1.10;30.20;;;;;;6063790;23;20858;-64
2023/01/20 02:14:16;;;;;;;23.13;14.70;;;1.10;30.20;;;;;;6064400;23;20425;-62
2023/01/20 02:16:53;;;;;;;22.30;14.10;;;1.00;30.30;;;;;;6060829;23;20443;-62
2023/01/20 02:19:58;;;;;;;19.50;13.53;;;1.00;30.40;;;;;;6064044;23;20403;-62
2023/01/20 02:22:35;;;;;;;19.90;12.37;;;1.00;30.60;;;;;;6063350;23;20901;-62
2023/01/20 02:25:24;;;;;;;22.07;13.73;;;1.00;30.60;;;;;;6065163;23;20399;-62
2023/01/20 02:28:24;;;;;;;23.63;13.87;;;1.00;30.80;;;;;;6065128;23;20412;-62
2023/01/20 02:31:14;;;;;;;23.57;14.00;;;1.00;31.00;;;;;;6058916;23;20438;-62
2023/01/20 02:33:46;;;;;;;21.57;14.47;;;1.00;30.90;;;;;;6071744;23;20407;-61
2023/01/20 02:36:17;;;;;;;27.50;14.30;;;1.00;30.80;;;;;;6075092;23;20409;-61
2023/01/20 02:38:48;;;;;;;21.93;14.40;;;1.10;30.90;;;;;;6073960;23;20974;-61
2023/01/20 02:41:21;;;;;;;22.50;14.23;;;1.10;31.00;;;;;;6074303;23;20439;-62
2023/01/20 02:43:52;;;;;;;23.13;14.13;;;1.00;31.00;;;;;;6075005;23;20415;-63
2023/01/20 02:46:26;;;;;;;22.83;14.10;;;1.00;31.10;;;;;;6077794;23;20391;-61
2023/01/20 02:49:05;;;;;;;18.23;13.50;;;1.00;31.10;;;;;;6075610;23;20406;-63
2023/01/20 02:51:40;;;;;;;23.00;14.67;;;1.10;31.00;;;;;;6063848;23;20439;-63
2023/01/20 02:54:10;;;;;;;22.70;15.07;;;1.00;31.10;;;;;;6062356;23;20414;-61
2023/01/20 02:56:38;;;;;;;24.00;15.30;;;1.00;31.00;;;;;;6064153;23;20466;-62
2023/01/20 02:59:10;;;;;;;20.97;14.37;;;1.00;31.10;;;;;;6062814;23;20926;-62
2023/01/20 03:01:40;;;;;;;22.20;14.43;;;1.00;31.70;;;;;;6062123;23;20454;-62
2023/01/20 03:04:10;;;;;;;24.27;14.10;;;0.90;31.10;;;;;;6065190;23;20426;-64
2023/01/20 03:06:42;;;;;;;29.47;14.40;;;0.90;31.20;;;;;;6063296;23;20404;-62
2023/01/20 03:09:13;;;;;;;22.50;15.30;;;0.90;31.00;;;;;;6063815;23;20408;-62
2023/01/20 03:11:45;;;;;;;22.30;14.40;;;0.90;31.00;;;;;;6063249;23;20462;-62
2023/01/20 03:14:14;;;;;;;27.00;15.07;;;0.90;31.10;;;;;;6064839;23;20407;-65
2023/01/20 03:16:41;;;;;;;31.03;15.97;;;0.80;31.00;;;;;;6063497;23;20490;-63
2023/01/20 03:19:10;;;;;;;23.70;15.30;;;0.70;31.10;;;;;;6064392;23;20423;-63
2023/01/20 03:21:37;;;;;;;22.20;15.00;;;0.70;31.20;;;;;;6059898;23;21080;-62
2023/01/20 03:24:05;;;;;;;21.03;14.37;;;0.70;31.20;;;;;;6061963;23;20784;-64
2023/01/20 03:26:33;;;;;;;26.30;16.67;;;0.70;31.30;;;;;;6062201;23;20423;-62
2023/01/20 03:29:04;;;;;;;23.30;15.00;;;0.70;31.90;;;;;;6062432;23;20886;-62
2023/01/20 03:31:35;;;;;;;24.50;16.83;;;0.70;31.40;;;;;;6066159;23;20443;-63
2023/01/20 03:34:05;;;;;;;25.73;17.33;;;0.80;31.50;;;;;;6062138;23;20408;-62
2023/01/20 03:36:34;;;;;;;28.13;16.83;;;0.80;31.50;;;;;;6061370;23;20837;-62
2023/01/20 03:39:01;;;;;;;24.60;16.37;;;0.80;31.50;;;;;;6063203;23;20419;-62
2023/01/20 03:41:36;;;;;;;23.97;15.03;;;0.80;31.50;;;;;;6061726;23;20447;-62
2023/01/20 03:44:11;;;;;;;22.43;14.07;;;0.90;31.80;;;;;;6062574;23;20438;-62
2023/01/20 03:46:43;;;;;;;24.97;15.63;;;0.90;31.70;;;;;;6061854;23;20927;-62
2023/01/20 03:49:17;;;;;;;24.90;15.43;;;0.90;31.60;;;;;;6062771;23;20408;-63
2023/01/20 03:51:59;;;;;;;20.53;14.90;;;0.90;31.60;;;;;;6063173;23;20974;-62
2023/01/20 03:54:31;;;;;;;20.80;13.70;;;0.90;31.60;;;;;;6062990;23;20905;-61
2023/01/20 03:57:03;;;;;;;20.60;13.37;;;0.90;31.40;;;;;;6061837;23;20427;-62
2023/01/20 03:59:33;;;;;;;19.40;14.20;;;0.90;31.50;;;;;;6062479;23;20470;-62
2023/01/20 04:02:04;;;;;;;23.60;14.27;;;0.80;31.30;;;;;;6061385;23;20439;-62
2023/01/20 04:04:33;;;;;;;20.70;14.37;;;0.80;31.30;;;;;;6061711;23;21093;-62
2023/01/20 04:07:04;;;;;;;20.77;14.20;;;0.80;31.40;;;;;;6060897;23;20416;-62
2023/01/20 04:09:35;;;;;;;24.13;14.13;;;0.70;31.30;;;;;;6062344;23;20403;-61
2023/01/20 04:12:02;;;;;;;20.30;12.30;;;0.70;31.30;;;;;;6061905;23;20407;-62
2023/01/20 04:14:28;;;;;;;21.30;13.00;;;0.70;31.30;;;;;;6062252;23;20427;-62
2023/01/20 04:16:57;;;;;;;27.23;15.53;;;0.60;31.30;;;;;;6062518;23;20443;-62
2023/01/20 04:19:25;;;;;;;23.07;14.43;;;0.60;31.30;;;;;;6061736;23;20426;-62
2023/01/20 04:21:58;;;;;;;21.57;13.93;;;0.60;31.40;;;;;;6062338;23;20419;-62
2023/01/20 04:24:31;;;;;;;20.77;12.27;;;0.60;31.40;;;;;;6061944;23;20897;-62
2023/01/20 04:26:57;;;;;;;22.57;13.03;;;0.60;31.50;;;;;;6063026;23;20407;-63
2023/01/20 04:29:24;;;;;;;21.33;13.40;;;0.60;31.50;;;;;;6061010;23;20423;-63
2023/01/20 04:31:57;;;;;;;20.23;12.50;;;0.60;31.50;;;;;;6061078;23;20445;-63
2023/01/20 04:34:24;;;;;;;18.10;12.37;;;0.60;32.10;;;;;;6062975;23;20404;-63
2023/01/20 04:36:50;;;;;;;22.80;13.83;;;0.60;31.50;;;;;;6061433;23;20423;-63
2023/01/20 04:39:17;;;;;;;22.70;14.97;;;0.60;31.60;;;;;;6062936;23;20418;-64
2023/01/20 04:41:46;;;;;;;20.47;14.40;;;0.60;31.60;;;;;;6060473;23;20439;-62
2023/01/20 04:44:13;;;;;;;22.57;14.03;;;0.60;31.70;;;;;;6062640;23;20956;-61
2023/01/20 04:46:39;;;;;;;28.60;14.10;;;0.60;31.70;;;;;;6061963;23;20423;-62
2023/01/20 04:49:06;;;;;;;23.77;16.00;;;0.60;31.60;;;;;;6062157;23;20415;-63
2023/01/20 04:51:33;;;;;;;19.53;13.07;;;0.60;31.80;;;;;;6062641;23;20446;-63
2023/01/20 04:54:00;;;;;;;22.27;13.77;;;0.60;31.70;;;;;;6059593;23;20430;-62
2023/01/20 04:56:27;;;;;;;19.20;12.80;;;0.60;31.70;;;;;;6061864;23;20426;-62
2023/01/20 04:58:55;;;;;;;21.70;14.00;;;0.60;31.70;;;;;;6061302;23;20443;-61
2023/01/20 05:01:22;;;;;;;19.37;12.00;;;0.60;31.80;;;;;;6059942;23;20443;-62
2023/01/20 05:03:49;;;;;;;19.37;12.57;;;0.60;31.70;;;;;;6062349;23;21014;-62
2023/01/20 05:06:17;;;;;;;18.07;11.77;;;0.60;31.80;;;;;;6060172;23;20423;-63
2023/01/20 05:08:44;;;;;;;16.80;11.73;;;0.70;31.80;;;;;;6061553;23;20416;-61
2023/01/20 05:11:11;;;;;;;21.30;11.87;;;0.70;31.70;;;;;;6061982;23;20439;-61
2023/01/20 05:13:39;;;;;;;18.43;11.60;;;0.70;31.70;;;;;;6062360;23;20427;-61
2023/01/20 05:16:08;;;;;;;18.40;11.20;;;0.70;31.80;;;;;;6059546;23;20423;-62
2023/01/20 05:18:35;;;;;;;16.20;11.20;;;0.70;31.80;;;;;;6061156;23;20455;-62
2023/01/20 05:21:02;;;;;;;15.87;10.87;;;0.70;31.80;;;;;;6061416;23;20439;-62
2023/01/20 05:23:29;;;;;;;20.80;11.00;;;0.70;31.70;;;;;;6061769;23;20454;-62
2023/01/20 05:25:56;;;;;;;25.20;11.87;;;0.70;31.90;;;;;;6061085;23;20991;-62
2023/01/20 05:28:23;;;;;;;16.17;10.93;;;0.70;31.90;;;;;;6060827;23;20421;-61
2023/01/20 05:30:50;;;;;;;17.33;10.80;;;0.70;31.90;;;;;;6058437;23;20454;-62
2023/01/20 05:33:18;;;;;;;16.50;10.47;;;0.70;31.90;;;;;;6060774;23;20457;-62
2023/01/20 05:35:45;;;;;;;16.27;10.77;;;0.70;32.00;;;;;;6060476;23;20613;-62
2023/01/20 05:38:12;;;;;;;17.80;10.60;;;0.70;31.80;;;;;;6060644;23;20447;-62
2023/01/20 05:40:38;;;;;;;18.30;12.07;;;0.70;31.80;;;;;;6061091;23;20439;-62
2023/01/20 05:43:05;;;;;;;16.97;11.40;;;0.80;31.70;;;;;;6061882;23;21038;-62
2023/01/20 05:45:32;;;;;;;16.53;11.10;;;0.80;31.70;;;;;;6061013;23;20427;-63
2023/01/20 05:47:59;;;;;;;15.47;10.93;;;0.80;31.70;;;;;;6062118;23;20476;-62
2023/01/20 05:50:28;;;;;;;18.20;11.60;;;0.80;31.60;;;;;;6062591;23;20439;-63
2023/01/20 05:52:55;;;;;;;17.03;10.50;;;0.90;31.70;;;;;;6063735;23;20427;-63
2023/01/20 05:55:22;;;;;;;17.17;9.60;;;0.90;31.70;;;;;;6062575;23;20938;-64
2023/01/20 05:57:49;;;;;;;14.30;10.03;;;0.90;31.60;;;;;;6062541;23;20443;-62
2023/01/20 06:00:17;;;;;;;17.90;10.20;;;1.00;31.60;;;;;;6060141;23;20975;-65
2023/01/20 06:02:44;;;;;;;17.80;10.43;;;1.00;31.60;;;;;;6061542;23;20509;-63
2023/01/20 06:05:11;;;;;;;13.47;9.77;;;1.00;31.50;;;;;;6062596;23;21048;-62
2023/01/20 06:07:39;;;;;;;15.83;9.50;;;1.10;31.50;;;;;;6061516;23;20418;-61
2023/01/20 06:10:07;;;;;;;15.80;9.33;;;1.10;31.30;;;;;;6063271;23;20504;-64
2023/01/20 06:12:34;;;;;;;13.00;9.20;;;1.20;31.10;;;;;;6061739;23;20434;-63
2023/01/20 06:15:00;;;;;;;13.03;8.40;;;1.20;30.90;;;;;;6062909;23;20426;-62
2023/01/20 06:17:27;;;;;;;16.40;9.83;;;1.20;30.90;;;;;;6063260;23;20426;-63
2023/01/20 06:19:54;;;;;;;13.73;9.20;;;1.20;30.90;;;;;;6063035;23;20446;-62
2023/01/20 06:22:21;;;;;;;15.83;10.03;;;1.20;30.90;;;;;;6060097;23;20945;-64
2023/01/20 06:24:49;;;;;;;15.57;9.40;;;1.20;31.00;;;;;;6062536;23;20419;-63
2023/01/20 06:27:15;;;;;;;14.33;9.43;;;1.20;31.00;;;;;;6063678;23;20924;-62
2023/01/20 06:29:42;;;;;;;16.47;10.07;;;1.10;31.00;;;;;;6060656;23;20434;-62
2023/01/20 06:32:09;;;;;;;15.97;9.60;;;1.10;31.00;;;;;;6061370;23;20982;-62
2023/01/20 06:34:36;;;;;;;16.80;9.97;;;1.20;31.00;;;;;;6062648;23;20426;-64
2023/01/20 06:37:03;;;;;;;17.53;10.17;;;1.10;31.00;;;;;;6062865;23;20423;-63
2023/01/20 06:39:30;;;;;;;14.53;9.57;;;1.10;31.00;;;;;;6061728;23;20443;-62
2023/01/20 06:41:59;;;;;;;15.70;9.37;;;1.10;31.00;;;;;;6062033;23;20924;-63
2023/01/20 06:44:26;;;;;;;12.63;8.80;;;1.10;31.10;;;;;;6062576;23;20420;-62
2023/01/20 06:46:53;;;;;;;16.80;10.27;;;1.10;31.20;;;;;;6061534;23;20423;-62
2023/01/20 06:49:20;;;;;;;13.70;8.93;;;1.10;31.20;;;;;;6061459;23;20998;-62
2023/01/20 06:51:48;;;;;;;16.13;9.40;;;1.20;31.20;;;;;;6061754;23;20762;-63
2023/01/20 06:54:15;;;;;;;14.87;8.90;;;1.10;31.20;;;;;;6062596;23;20426;-63
2023/01/20 06:56:42;;;;;;;14.20;9.73;;;1.20;31.80;;;;;;6060565;23;20427;-62
2023/01/20 06:59:11;;;;;;;15.70;9.90;;;1.20;31.20;;;;;;6060662;23;20447;-61
2023/01/20 07:01:38;;;;;;;15.77;10.23;;;1.20;31.20;;;;;;6061563;23;21101;-61
2023/01/20 07:04:05;;;;;;;18.87;9.73;;;1.20;31.40;;;;;;6062723;23;20419;-61
2023/01/20 07:06:34;;;;;;;18.20;11.73;;;1.20;31.40;;;;;;6060998;23;20427;-68
2023/01/20 07:09:01;;;;;;;19.77;11.10;;;1.20;31.50;;;;;;6059496;23;20427;-68
2023/01/20 07:11:30;;;;;;;15.40;9.70;;;1.20;31.40;;;;;;6061000;23;20586;-68
2023/01/20 07:13:56;;;;;;;17.97;10.33;;;1.20;31.50;;;;;;6060288;23;20419;-66
2023/01/20 07:16:25;;;;;;;15.87;11.70;;;1.20;31.50;;;;;;6056926;23;20423;-68
2023/01/20 07:18:52;;;;;;;15.83;10.77;;;1.20;31.50;;;;;;6062376;23;20443;-69
2023/01/20 07:21:20;;;;;;;17.90;11.03;;;1.20;31.50;;;;;;6055171;23;20749;-69
2023/01/20 07:23:47;;;;;;;17.27;11.33;;;1.20;31.40;;;;;;6061995;23;20419;-69
2023/01/20 07:26:16;;;;;;;18.00;12.20;;;1.20;31.50;;;;;;6058629;23;20462;-69
2023/01/20 07:28:43;;;;;;;14.77;10.17;;;1.20;31.60;;;;;;6055106;23;20423;-68
2023/01/20 07:31:12;;;;;;;15.00;9.03;;;1.30;31.70;;;;;;6059169;23;20443;-68
2023/01/20 07:33:41;;;;;;;13.33;9.50;;;1.30;31.60;;;;;;6057553;23;20454;-66
2023/01/20 07:36:09;;;;;;;34.40;23.87;;;1.30;31.60;;;;;;6059110;23;20427;-69
2023/01/20 07:38:36;;;;;;;27.37;18.03;;;1.30;31.70;;;;;;6060237;23;20443;-63
2023/01/20 07:41:06;;;;;;;27.87;16.83;;;1.30;31.60;;;;;;6060450;23;20454;-64
2023/01/20 07:43:33;;;;;;;26.03;15.63;;;1.30;31.70;;;;;;6059206;23;20423;-64
2023/01/20 07:46:02;;;;;;;21.47;14.20;;;1.30;31.80;;;;;;6061169;23;20422;-64
2023/01/20 07:48:31;;;;;;;27.80;19.70;;;1.30;31.80;;;;;;6059144;23;20423;-64
2023/01/20 07:51:03;;;;;;;17.20;13.80;;;1.40;31.80;;;;;;6061347;23;20474;-64
2023/01/20 07:53:30;;;;;;;23.57;15.00;;;1.40;31.90;;;;;;6060743;23;20446;-65
2023/01/20 07:56:00;;;;;;;39.93;25.53;;;1.40;31.70;;;;;;6059858;23;20441;-63
2023/01/20 07:58:28;;;;;;;26.17;18.07;;;1.40;31.80;;;;;;6060235;23;20456;-62
2023/01/20 08:00:54;;;;;;;27.20;22.43;;;1.40;31.90;;;;;;6058811;23;20448;-62
2023/01/20 08:03:21;;;;;;;22.90;16.10;;;1.50;31.90;;;;;;6064833;23;20856;-61
2023/01/20 08:05:48;;;;;;;19.60;15.23;;;1.50;31.80;;;;;;6058001;23;20426;-62
2023/01/20 08:08:16;;;;;;;21.17;13.73;;;1.60;31.60;;;;;;6054576;23;20420;-61
2023/01/20 08:10:43;;;;;;;21.63;14.40;;;1.70;31.50;;;;;;6058313;23;20454;-63
2023/01/20 08:13:10;;;;;;;24.77;16.27;;;1.80;31.20;;;;;;6057218;23;20415;-62
2023/01/20 08:15:36;;;;;;;19.40;15.27;;;1.90;31.30;;;;;;6059089;23;20423;-62
2023/01/20 08:18:03;;;;;;;28.20;17.30;;;2.00;31.10;;;;;;6057818;23;20430;-61
2023/01/20 08:20:30;;;;;;;30.30;19.57;;;2.00;30.90;;;;;;6059415;23;20447;-60
2023/01/20 08:22:57;;;;;;;25.10;16.53;;;2.00;30.80;;;;;;6060649;23;20714;-64
2023/01/20 08:25:25;;;;;;;30.13;20.97;;;2.10;30.80;;;;;;6055313;23;20423;-64
2023/01/20 08:27:51;;;;;;;22.27;15.30;;;2.00;30.90;;;;;;6060431;23;20419;-64
2023/01/20 08:30:18;;;;;;;28.93;14.70;;;2.00;31.00;;;;;;6068164;23;20521;-63
2023/01/20 08:32:45;;;;;;;22.73;15.03;;;2.00;31.00;;;;;;6055987;23;20419;-63
2023/01/20 08:35:12;;;;;;;22.70;14.90;;;2.00;31.10;;;;;;6060339;23;20419;-64
2023/01/20 08:37:39;;;;;;;24.30;15.97;;;1.90;31.20;;;;;;6061780;23;20908;-62
2023/01/20 08:40:07;;;;;;;20.60;15.10;;;1.90;31.30;;;;;;6060511;23;20971;-64
2023/01/20 08:42:35;;;;;;;25.97;15.70;;;1.90;31.30;;;;;;6059454;23;20423;-63
2023/01/20 08:45:03;;;;;;;23.50;16.37;;;1.90;31.40;;;;;;6071150;23;20823;-63
2023/01/20 08:47:29;;;;;;;25.30;16.00;;;2.00;31.50;;;;;;6061269;23;20419;-63
2023/01/20 08:49:56;;;;;;;24.80;15.50;;;2.00;31.60;;;;;;6062140;23;20445;-63
2023/01/20 08:52:23;;;;;;;25.10;16.80;;;2.00;31.70;;;;;;6059750;23;20420;-63
2023/01/20 08:54:52;;;;;;;27.80;16.73;;;2.10;31.70;;;;;;6054787;23;21010;-63
2023/01/20 08:57:19;;;;;;;28.50;18.70;;;2.10;31.60;;;;;;6058100;23;20423;-63
2023/01/20 08:59:49;;;;;;;31.50;18.10;;;2.10;31.50;;;;;;6061751;23;20454;-62
2023/01/20 09:02:16;;;;;;;29.70;18.90;;;2.10;31.40;;;;;;6058881;23;20454;-65
2023/01/20 09:04:42;;;;;;;29.40;17.53;;;2.20;31.40;;;;;;6060633;23;20916;-62
2023/01/20 09:07:11;;;;;;;26.90;16.77;;;2.30;31.30;;;;;;6062257;23;20422;-62
2023/01/20 09:09:38;;;;;;;24.70;16.23;;;2.30;31.30;;;;;;6059310;23;20419;-63
2023/01/20 09:12:06;;;;;;;28.87;18.53;;;2.40;31.10;;;;;;6060495;23;20422;-62
2023/01/20 09:14:33;;;;;;;28.80;16.80;;;2.40;31.00;;;;;;6061771;23;20432;-62
2023/01/20 09:17:01;;;;;;;24.20;16.03;;;2.40;31.00;;;;;;6062379;23;20434;-66
2023/01/20 09:19:28;;;;;;;26.60;16.00;;;2.40;30.90;;;;;;6061105;23;20466;-66
2023/01/20 09:21:55;;;;;;;33.97;16.73;;;2.50;30.90;;;;;;6061202;23;20423;-68
2023/01/20 09:24:22;;;;;;;25.00;16.30;;;2.50;30.70;;;;;;6062580;23;20430;-67
2023/01/20 09:26:50;;;;;;;29.20;19.13;;;2.60;30.60;;;;;;6061287;23;20430;-69
2023/01/20 09:29:18;;;;;;;28.00;16.90;;;2.60;30.50;;;;;;6062496;23;20415;-70
2023/01/20 09:31:49;;;;;;;35.17;18.70;;;2.70;30.30;;;;;;6061723;23;20450;-70
2023/01/20 09:34:21;;;;;;;28.60;16.83;;;2.70;30.30;;;;;;6062942;23;20407;-71
2023/01/20 09:36:50;;;;;;;31.67;17.63;;;2.70;30.10;;;;;;6057774;23;20446;-71
2023/01/20 09:45:21;;;;;;;29.20;18.40;;;2.80;30.10;;;;;;6060809;23;20474;-65
2023/01/20 09:47:49;;;;;;;33.17;17.83;;;2.90;29.20;;;;;;6058868;23;20410;-67
2023/01/20 09:53:39;;;;;;;34.93;17.37;;;3.00;28.90;;;;;;6030154;23;20535;-68
2023/01/20 09:56:12;;;;;;;37.37;18.67;;;3.00;28.60;;;;;;6034172;23;20408;-71
2023/01/20 09:58:45;;;;;;;33.37;15.93;;;3.10;28.20;;;;;;6033000;23;20408;-73
2023/01/20 10:01:17;;;;;;;29.77;16.30;;;3.00;28.30;;;;;;6032579;23;20455;-75
2023/01/20 10:03:52;;;;;;;28.47;16.43;;;3.10;28.30;;;;;;6032516;23;20444;-71
2023/01/20 10:06:25;;;;;;;25.60;14.47;;;3.10;28.20;;;;;;6031773;23;20414;-71
2023/01/20 10:08:57;;;;;;;21.90;14.23;;;3.10;28.20;;;;;;6034141;23;20436;-71
2023/01/20 10:11:26;;;;;;;17.20;11.30;;;3.20;28.20;;;;;;6032772;23;20404;-71
2023/01/20 10:13:59;;;;;;;21.13;13.60;;;3.20;27.80;;;;;;6042277;23;20417;-68
2023/01/20 10:16:32;;;;;;;19.47;13.07;;;3.30;27.40;;;;;;6033519;23;20408;-68
2023/01/20 10:19:01;;;;;;;19.30;12.03;;;3.30;27.50;;;;;;6031921;23;20523;-64
2023/01/20 10:21:36;;;;;;;28.27;12.00;;;3.40;27.20;;;;;;6032398;23;20435;-68
2023/01/20 10:24:09;;;;;;;25.27;13.33;;;3.40;27.20;;;;;;6034059;23;20423;-68
2023/01/20 10:26:43;;;;;;;31.93;13.73;;;3.40;27.00;;;;;;6032406;23;20405;-64
2023/01/20 10:29:17;;;;;;;18.43;11.23;;;3.40;26.90;;;;;;6030924;23;20443;-63
2023/01/20 10:31:49;;;;;;;18.37;11.37;;;3.50;26.80;;;;;;6031378;23;20439;-64
2023/01/20 10:34:21;;;;;;;17.63;11.90;;;3.60;26.60;;;;;;6029037;23;20409;-64
2023/01/20 10:36:58;;;;;;;23.80;12.33;;;3.60;26.00;;;;;;6033264;23;20411;-64
2023/01/20 10:39:30;;;;;;;16.83;11.30;;;3.70;26.10;;;;;;6032650;23;20824;-64
2023/01/20 10:42:03;;;;;;;16.30;10.67;;;3.80;25.80;;;;;;6030898;23;20428;-62
2023/01/20 10:44:34;;;;;;;19.03;12.37;;;3.90;26.00;;;;;;6029182;23;20405;-62
2023/01/20 10:47:15;;;;;;;19.47;12.07;;;4.00;25.50;;;;;;6029262;23;20404;-62
2023/01/20 10:50:05;;;;;;;19.27;12.60;;;4.10;24.70;;;;;;6032014;23;20440;-64
2023/01/20 10:52:46;;;;;;;18.80;11.23;;;4.20;24.90;;;;;;6028848;23;20415;-62
2023/01/20 10:55:26;;;;;;;22.00;12.13;;;4.30;24.30;;;;;;6028565;23;20412;-61
2023/01/20 10:57:56;;;;;;;18.67;11.27;;;4.30;23.80;;;;;;6030999;23;20409;-62
2023/01/20 11:00:27;;;;;;;16.50;10.10;;;4.40;23.20;;;;;;6025305;23;20487;-62
2023/01/20 11:02:55;;;;;;;18.67;11.23;;;4.40;23.00;;;;;;6029373;23;20415;-63
2023/01/20 11:05:25;;;;;;;18.27;10.27;;;4.50;22.20;;;;;;6029582;23;20424;-62
2023/01/20 11:07:55;;;;;;;15.10;9.27;;;4.50;21.80;;;;;;6027246;23;20553;-66
2023/01/20 11:10:26;;;;;;;15.80;10.30;;;4.50;21.80;;;;;;6034706;23;20787;-65
2023/01/20 11:12:56;;;;;;;17.13;10.30;;;4.50;21.50;;;;;;6029197;23;20408;-69
2023/01/20 11:15:27;;;;;;;16.70;10.80;;;4.50;21.90;;;;;;6032224;23;20404;-69
2023/01/20 11:18:20;;;;;;;15.53;10.27;;;4.50;22.10;;;;;;6033095;23;20404;-68
2023/01/20 11:20:48;;;;;;;15.50;9.87;;;4.60;22.10;;;;;;6031513;23;20448;-67
2023/01/20 11:23:22;;;;;;;16.53;10.30;;;4.60;21.80;;;;;;6032994;23;20427;-65
2023/01/20 11:25:55;;;;;;;14.37;9.10;;;4.70;21.80;;;;;;6033183;23;20492;-65
2023/01/20 11:28:22;;;;;;;16.23;9.40;;;4.70;22.00;;;;;;6032907;23;21057;-64
2023/01/20 11:30:53;;;;;;;14.13;8.10;;;4.90;21.20;;;;;;6029739;23;20449;-63
2023/01/20 11:33:22;;;;;;;14.43;7.43;;;4.90;20.70;;;;;;6032177;23;20410;-63
2023/01/20 11:36:00;;;;;;;13.60;8.50;;;5.00;20.10;;;;;;6038707;23;20740;-67
2023/01/20 11:38:30;;;;;;;15.40;8.60;;;5.00;19.50;;;;;;6032850;23;20420;-69
2023/01/20 11:40:58;;;;;;;12.13;8.47;;;5.00;19.90;;;;;;6030072;23;20439;-64
2023/01/20 11:43:29;;;;;;;17.10;8.30;;;5.00;19.90;;;;;;6032300;23;20443;-64
2023/01/20 11:46:11;;;;;;;12.03;7.53;;;4.90;20.20;;;;;;6031205;23;20420;-65
2023/01/20 11:48:37;;;;;;;12.37;7.50;;;5.00;20.00;;;;;;6033226;23;20439;-66
2023/01/20 11:51:05;;;;;;;17.90;8.07;;;5.00;20.00;;;;;;6030931;23;20420;-64
2023/01/20 11:53:33;;;;;;;13.30;7.30;;;5.00;20.10;;;;;;6032509;23;20424;-67
2023/01/20 11:56:03;;;;;;;15.57;7.50;;;5.00;20.30;;;;;;6031302;23;20603;-69
2023/01/20 11:58:33;;;;;;;10.83;6.80;;;5.00;20.00;;;;;;6033262;23;20748;-71
2023/01/20 12:01:02;;;;;;;11.10;6.63;;;5.10;19.60;;;;;;6030011;23;20440;-71
2023/01/20 12:04:14;;;;;;;10.60;6.23;;;5.10;19.10;;;;;;6031427;23;20828;-68
2023/01/20 12:06:50;;;;;;;11.57;6.37;;;5.10;19.40;;;;;;6030679;23;20418;-67
2023/01/20 12:09:22;;;;;;;15.03;6.20;;;5.10;19.30;;;;;;6030472;23;20934;-68
2023/01/20 12:11:56;;;;;;;9.23;5.50;;;5.20;18.40;;;;;;6032308;23;20454;-67
2023/01/20 12:18:14;;;;;;;10.70;5.47;;;5.10;18.70;;;;;;5919758;24;20411;-67
2023/01/20 12:20:45;;;;;;;11.13;5.40;;;5.20;18.90;;;;;;6020934;23;20469;-67
2023/01/20 12:23:20;;;;;;;13.47;6.40;;;5.20;19.00;;;;;;6031649;23;20439;-68
2023/01/20 12:25:55;;;;;;;11.63;6.10;;;5.20;18.90;;;;;;6030284;23;20408;-67
2023/01/20 12:28:26;;;;;;;11.37;5.93;;;5.30;18.40;;;;;;6029847;23;20920;-67
2023/01/20 12:30:57;;;;;;;10.43;6.20;;;5.40;18.40;;;;;;6031854;23;21063;-67
2023/01/20 12:33:26;;;;;;;10.20;5.27;;;5.50;18.00;;;;;;6032157;23;20413;-68
2023/01/20 12:36:22;;;;;;;12.03;6.90;;;5.50;17.90;;;;;;6029312;23;20431;-67
2023/01/20 12:39:01;;;;;;;12.63;5.73;;;5.50;17.80;;;;;;6032744;23;20440;-68
2023/01/20 12:41:48;;;;;;;9.90;6.27;;;5.60;17.10;;;;;;6032066;23;20444;-68
2023/01/20 12:44:20;;;;;;;12.83;6.70;;;5.60;17.50;;;;;;6032107;23;20411;-68
2023/01/20 12:46:51;;;;;;;10.57;7.20;;;5.80;16.80;;;;;;6031024;23;20416;-68
2023/01/20 12:49:36;;;;;;;11.07;5.87;;;5.80;16.30;;;;;;6031934;23;20443;-68
2023/01/20 12:52:18;;;;;;;9.40;5.30;;;5.80;16.30;;;;;;6032507;23;20408;-68
2023/01/20 12:55:05;;;;;;;8.43;5.67;;;5.80;16.50;;;;;;6031241;23;20408;-68
2023/01/20 12:57:53;;;;;;;9.33;5.23;;;5.80;16.40;;;;;;6028661;23;20404;-68
2023/01/20 13:00:34;;;;;;;11.80;6.53;;;5.90;15.80;;;;;;6030963;23;20776;-68
2023/01/20 13:03:37;;;;;;;10.40;5.40;;;5.80;15.80;;;;;;6030419;23;20416;-68
2023/01/20 13:06:27;;;;;;;9.70;5.00;;;5.70;15.90;;;;;;6031351;23;20429;-68